Time;durP1;ratioP1;P1;durP2;ratioP2;P2;SDS_P1;SDS_P2;PMS_P1;PMS_P2;Temp;Humidity;BMP_temperature;BMP_pressure;BME280_temperature;BME280_humidity;BME280_pressure;Samples;Min_cycle;Max_cycle;Signal;HPM_P1;HPM_P2
2022/09/18 00:00:57;;;;;;;11.63;1.60;;;;;;;11.71;100.00;101596.63;5075382;28;20032;-66
2022/09/18 00:03:22;;;;;;;9.45;1.20;;;;;;;11.76;100.00;101594.97;5079439;28;20073;-66
2022/09/18 00:05:48;;;;;;;8.00;1.48;;;;;;;11.79;100.00;101585.41;5088739;28;20077;-66
2022/09/18 00:08:13;;;;;;;5.45;0.90;;;;;;;11.81;100.00;101594.25;5086523;28;20032;-66
2022/09/18 00:10:43;;;;;;;10.88;1.40;;;;;;;11.87;100.00;101592.59;5068482;28;20100;-67
2022/09/18 00:13:09;;;;;;;7.70;1.05;;;;;;;11.89;100.00;101591.75;5053631;28;20111;-66
2022/09/18 00:15:35;;;;;;;8.02;0.90;;;;;;;11.91;100.00;101599.72;5051840;28;20186;-66
2022/09/18 00:18:01;;;;;;;9.60;1.00;;;;;;;11.91;100.00;101594.44;5053471;28;20476;-66
2022/09/18 00:20:26;;;;;;;7.25;1.02;;;;;;;11.92;100.00;101590.94;5066765;28;20036;-67
2022/09/18 00:22:51;;;;;;;8.07;2.03;;;;;;;11.89;100.00;101590.88;5055534;28;20074;-66
2022/09/18 00:25:17;;;;;;;6.43;0.65;;;;;;;11.88;100.00;101595.28;5059446;28;20032;-67
2022/09/18 00:27:42;;;;;;;6.75;0.45;;;;;;;11.85;100.00;101591.66;5052538;28;20571;-66
2022/09/18 00:30:08;;;;;;;4.50;0.77;;;;;;;11.82;100.00;101584.56;5053035;28;20392;-65
2022/09/18 00:32:33;;;;;;;4.22;0.47;;;;;;;11.80;100.00;101592.47;5063869;28;20028;-66
2022/09/18 00:34:59;;;;;;;1.23;0.55;;;;;;;11.80;100.00;101587.19;5069857;28;20443;-67
2022/09/18 00:37:24;;;;;;;3.35;0.60;;;;;;;11.80;100.00;101584.53;5071402;28;20352;-66
2022/09/18 00:39:49;;;;;;;4.07;0.65;;;;;;;11.80;100.00;101592.47;5054403;28;20044;-67
2022/09/18 00:42:18;;;;;;;9.38;0.90;;;;;;;11.85;100.00;101583.75;5068396;28;20107;-68
2022/09/18 00:44:45;;;;;;;7.82;1.23;;;;;;;11.88;100.00;101591.72;5065280;28;20463;-65
2022/09/18 00:47:10;;;;;;;8.02;0.75;;;;;;;11.92;100.00;101596.22;5063714;28;20492;-66
2022/09/18 00:49:39;;;;;;;11.35;1.05;;;;;;;11.99;100.00;101616.63;5044869;28;20037;-65
2022/09/18 00:52:05;;;;;;;6.25;0.98;;;;;;;12.05;100.00;101619.44;5049807;28;20392;-66
2022/09/18 00:54:36;;;;;;;6.90;0.95;;;;;;;11.98;100.00;101612.25;5053391;28;20047;-66
2022/09/18 00:57:06;;;;;;;2.38;0.50;;;;;;;11.86;100.00;101604.00;5053421;28;20078;-66
2022/09/18 00:59:33;;;;;;;6.05;0.55;;;;;;;11.70;100.00;101611.53;5050720;28;20400;-66
2022/09/18 01:01:59;;;;;;;3.92;0.57;;;;;;;11.63;100.00;101613.13;5059043;28;20519;-65
2022/09/18 01:04:26;;;;;;;6.30;0.70;;;;;;;11.57;100.00;101615.63;5065425;28;20028;-66
2022/09/18 01:06:57;;;;;;;7.22;1.08;;;;;;;11.51;100.00;101609.31;5071076;28;20035;-65
2022/09/18 01:09:31;;;;;;;6.03;0.60;;;;;;;11.49;100.00;101596.09;5075496;28;20052;-66
2022/09/18 01:12:04;;;;;;;5.57;0.85;;;;;;;11.47;100.00;101585.50;5079572;28;20047;-67
2022/09/18 01:14:53;;;;;;;6.22;0.68;;;;;;;11.47;100.00;101585.50;5074251;28;20028;-67
2022/09/18 01:17:43;;;;;;;6.20;1.52;;;;;;;11.49;100.00;101580.28;5072957;28;20060;-66
2022/09/18 01:20:11;;;;;;;10.07;1.02;;;;;;;11.51;100.00;101582.97;5073719;28;20027;-66
2022/09/18 01:22:55;;;;;;;15.40;1.58;;;;;;;11.51;100.00;101582.97;5072546;28;20037;-65
2022/09/18 01:25:37;;;;;;;;;;;;;;;11.53;100.00;101571.59;5082628;28;20032;-66
2022/09/18 01:28:15;;;;;;;10.35;1.25;;;;;;;11.55;100.00;101563.72;5071603;28;20257;-66
2022/09/18 01:30:44;;;;;;;7.05;0.70;;;;;;;11.59;100.00;101570.84;5080191;28;20024;-66
2022/09/18 01:33:28;;;;;;;4.78;0.70;;;;;;;11.64;100.00;101569.22;5072213;28;20074;-66
2022/09/18 01:35:59;;;;;;;13.05;1.88;;;;;;;11.63;100.00;101577.97;5083963;28;20533;-65
2022/09/18 01:38:47;;;;;;;3.45;1.05;;;;;;;11.63;100.00;101575.34;5077340;28;20028;-65
2022/09/18 01:41:21;;;;;;;10.45;1.00;;;;;;;11.63;100.00;101573.59;5072201;28;20040;-65
2022/09/18 01:43:53;;;;;;;4.22;0.88;;;;;;;11.66;100.00;101566.63;5075407;28;20028;-66
2022/09/18 01:46:19;;;;;;;7.25;0.90;;;;;;;11.70;100.00;101558.81;5070788;28;20024;-67
2022/09/18 01:48:49;;;;;;;9.80;1.02;;;;;;;11.74;100.00;101568.56;5087296;28;20024;-67
2022/09/18 01:51:29;;;;;;;9.65;1.05;;;;;;;11.77;100.00;101568.66;5078214;28;20074;-66
2022/09/18 01:54:03;;;;;;;11.80;0.95;;;;;;;11.79;100.00;101559.03;5075343;28;20036;-66
2022/09/18 01:56:40;;;;;;;7.22;1.25;;;;;;;11.85;100.00;101562.66;5072886;28;20123;-67
2022/09/18 01:59:11;;;;;;;10.35;1.10;;;;;;;11.88;100.00;101547.81;5074418;28;20028;-66
2022/09/18 02:01:41;;;;;;;8.80;0.85;;;;;;;11.91;100.00;101560.16;5074956;28;20040;-67
2022/09/18 02:04:15;;;;;;;10.15;1.05;;;;;;;11.95;100.00;101557.66;5090501;28;20055;-66
2022/09/18 02:06:53;;;;;;;6.63;1.20;;;;;;;11.97;100.00;101558.56;5076818;28;20055;-65
2022/09/18 02:09:19;;;;;;;9.02;1.30;;;;;;;11.97;100.00;101555.06;5079180;28;20048;-66
2022/09/18 02:11:49;;;;;;;5.97;1.35;;;;;;;11.97;100.00;101549.78;5088694;28;20036;-65
2022/09/18 02:14:43;;;;;;;8.90;1.17;;;;;;;11.99;100.00;101558.59;5085384;28;20028;-68
2022/09/18 02:17:16;;;;;;;12.02;1.02;;;;;;;12.01;100.00;101554.28;5073235;28;20076;-66
2022/09/18 02:19:47;;;;;;;14.20;1.38;;;;;;;12.02;100.00;101550.78;5082962;28;20471;-67
2022/09/18 02:22:18;;;;;;;10.23;1.17;;;;;;;12.05;100.00;101545.56;5080824;28;20032;-66
2022/09/18 02:24:47;;;;;;;4.45;1.60;;;;;;;12.08;100.00;101550.91;5075822;28;20048;-66
2022/09/18 02:27:15;;;;;;;10.45;1.23;;;;;;;12.11;100.00;101553.63;5075807;28;20111;-67
2022/09/18 02:29:43;;;;;;;9.65;1.55;;;;;;;12.14;100.00;101551.03;5071687;28;20043;-65
2022/09/18 02:32:09;;;;;;;5.40;0.80;;;;;;;12.14;100.00;101551.03;5058082;28;20029;-65
2022/09/18 02:34:34;;;;;;;6.20;0.60;;;;;;;12.16;100.00;101558.13;5069173;28;20078;-66
2022/09/18 02:37:18;;;;;;;9.23;1.15;;;;;;;12.14;100.00;101552.81;5075722;28;20410;-66
2022/09/18 02:40:37;;;;;;;10.30;1.20;;;;;;;12.11;100.00;101548.34;5092434;28;20020;-66
2022/09/18 02:43:02;;;;;;;3.38;0.73;;;;;;;12.10;100.00;101549.19;4980412;28;20169;-67
2022/09/18 02:46:05;;;;;;;6.20;1.10;;;;;;;12.10;100.00;101543.94;4994121;28;20113;-67
2022/09/18 02:48:42;;;;;;;4.43;0.88;;;;;;;12.09;100.00;101547.41;5065379;28;20436;-66
2022/09/18 02:51:35;;;;;;;7.07;0.82;;;;;;;12.09;100.00;101552.69;5076316;28;20058;-66
2022/09/18 02:54:16;;;;;;;3.88;0.73;;;;;;;12.08;100.00;101553.53;5076778;28;20476;-66
2022/09/18 02:56:51;;;;;;;6.75;1.45;;;;;;;12.10;100.00;101543.94;5067355;28;20103;-67
2022/09/18 02:59:25;;;;;;;4.22;0.60;;;;;;;12.10;100.00;101549.19;5075726;28;20424;-67
2022/09/18 03:01:53;;;;;;;8.35;0.82;;;;;;;12.06;100.00;101538.53;5075002;28;20492;-66
2022/09/18 03:04:22;;;;;;;7.47;0.98;;;;;;;12.07;100.00;101535.94;5081225;28;20031;-66
2022/09/18 03:06:47;;;;;;;6.03;1.25;;;;;;;12.10;100.00;101532.47;5082203;28;20028;-65
2022/09/18 03:09:14;;;;;;;7.45;0.95;;;;;;;12.09;100.00;101535.97;5079834;28;20118;-66
2022/09/18 03:11:40;;;;;;;5.82;0.60;;;;;;;12.10;100.00;101541.28;5073838;28;20456;-64
2022/09/18 03:14:05;;;;;;;10.15;0.85;;;;;;;12.10;100.00;101548.28;5074582;28;20052;-65
2022/09/18 03:16:31;;;;;;;4.47;1.13;;;;;;;12.18;100.00;101552.00;5075126;28;20431;-66
2022/09/18 03:18:56;;;;;;;4.22;0.52;;;;;;;12.23;100.00;101539.78;5079945;28;20048;-66
2022/09/18 03:21:25;;;;;;;3.38;0.47;;;;;;;12.22;100.00;101542.41;5075179;28;20027;-67
2022/09/18 03:23:51;;;;;;;5.05;0.75;;;;;;;12.18;100.00;101535.28;5082034;28;20023;-67
2022/09/18 03:26:17;;;;;;;15.10;1.08;;;;;;;12.12;100.00;101536.91;5075153;28;20103;-67
2022/09/18 03:28:43;;;;;;;3.40;0.60;;;;;;;12.11;100.00;101529.88;5076887;28;20082;-67
2022/09/18 03:31:09;;;;;;;5.55;0.55;;;;;;;12.10;100.00;101528.09;5081382;28;20052;-66
2022/09/18 03:33:35;;;;;;;8.15;1.02;;;;;;;12.04;100.00;101522.66;5077110;28;20028;-66
2022/09/18 03:36:01;;;;;;;6.38;0.90;;;;;;;11.99;100.00;101524.31;5074552;28;20029;-66
2022/09/18 03:38:26;;;;;;;5.80;1.67;;;;;;;11.96;100.00;101519.91;5074766;28;20021;-65
2022/09/18 03:40:51;;;;;;;7.82;1.00;;;;;;;11.93;100.00;101529.44;5058497;28;20114;-66
2022/09/18 03:43:17;;;;;;;7.25;1.55;;;;;;;11.94;100.00;101541.78;5074502;28;20104;-66
2022/09/18 03:45:42;;;;;;;8.52;1.52;;;;;;;12.00;100.00;101541.94;5074068;28;20469;-68
2022/09/18 03:48:07;;;;;;;6.97;0.93;;;;;;;12.04;100.00;101533.22;5073551;28;20032;-66
2022/09/18 03:50:33;;;;;;;11.48;1.25;;;;;;;12.03;100.00;101534.09;5074163;28;20468;-66
2022/09/18 03:52:58;;;;;;;4.88;1.33;;;;;;;12.00;100.00;101531.38;5074176;28;20074;-66
2022/09/18 03:55:23;;;;;;;6.18;1.13;;;;;;;11.94;100.00;101525.94;5074601;28;20035;-66
2022/09/18 03:57:49;;;;;;;5.10;0.80;;;;;;;11.92;100.00;101532.94;5075980;28;20384;-67
2022/09/18 04:00:15;;;;;;;11.07;1.95;;;;;;;11.87;100.00;101529.28;5074055;28;20028;-67
2022/09/18 04:02:41;;;;;;;7.80;0.73;;;;;;;11.85;100.00;101525.75;5078395;28;20029;-67
2022/09/18 04:05:07;;;;;;;7.50;1.20;;;;;;;11.80;100.00;101526.53;5088811;28;20126;-66
2022/09/18 04:07:33;;;;;;;7.90;1.05;;;;;;;11.78;100.00;101533.50;5074016;28;20051;-66
2022/09/18 04:09:58;;;;;;;4.95;0.70;;;;;;;11.79;100.00;101530.03;5078424;28;20032;-66
2022/09/18 04:12:23;;;;;;;8.60;1.00;;;;;;;11.79;100.00;101530.03;5076478;28;20036;-67
2022/09/18 04:14:49;;;;;;;7.78;0.90;;;;;;;11.81;100.00;101525.69;5073622;28;20376;-67
2022/09/18 04:17:14;;;;;;;7.18;0.68;;;;;;;11.85;100.00;101536.28;5073529;28;20052;-68
2022/09/18 04:19:40;;;;;;;6.63;1.23;;;;;;;11.86;100.00;101525.78;5078470;28;20107;-66
2022/09/18 04:22:05;;;;;;;7.25;0.98;;;;;;;11.89;100.00;101528.47;5074198;28;20840;-67
2022/09/18 04:24:30;;;;;;;7.13;1.38;;;;;;;11.91;100.00;101532.06;5079772;28;20433;-67
2022/09/18 04:26:56;;;;;;;9.27;0.65;;;;;;;11.95;100.00;101528.66;5079049;28;20511;-67
2022/09/18 04:29:21;;;;;;;5.82;0.68;;;;;;;11.99;100.00;101526.94;5076961;28;20037;-67
2022/09/18 04:31:46;;;;;;;4.88;0.50;;;;;;;12.04;100.00;101521.78;5088285;28;20471;-68
2022/09/18 04:34:11;;;;;;;19.85;1.65;;;;;;;12.08;100.00;101527.16;5084337;28;20050;-68
2022/09/18 04:36:37;;;;;;;2.25;0.82;;;;;;;12.09;100.00;101522.78;5087964;28;20026;-66
2022/09/18 04:39:02;;;;;;;5.03;1.33;;;;;;;12.08;100.00;101524.53;5082353;28;20028;-68
2022/09/18 04:41:28;;;;;;;12.32;0.80;;;;;;;12.10;100.00;101533.38;5074412;28;20070;-67
2022/09/18 04:43:53;;;;;;;5.40;1.35;;;;;;;12.20;100.00;101541.50;5092377;28;20019;-67
2022/09/18 04:46:18;;;;;;;11.48;0.90;;;;;;;12.19;100.00;101526.50;5074639;28;20031;-67
2022/09/18 04:48:46;;;;;;;1.35;0.45;;;;;;;12.08;100.00;101513.97;5059424;28;20020;-67
2022/09/18 04:51:12;;;;;;;5.55;0.50;;;;;;;11.97;100.00;101520.78;5073359;28;20024;-67
2022/09/18 04:53:39;;;;;;;3.15;0.55;;;;;;;11.85;100.00;101515.19;5085657;28;20426;-67
2022/09/18 04:56:04;;;;;;;9.55;0.70;;;;;;;11.80;100.00;101518.63;5074637;28;20032;-66
2022/09/18 04:58:29;;;;;;;8.52;0.63;;;;;;;11.79;100.00;101510.69;5083168;28;20487;-66
2022/09/18 05:00:55;;;;;;;5.38;0.55;;;;;;;11.79;100.00;101506.28;5072933;28;20037;-67
2022/09/18 05:03:21;;;;;;;2.47;0.50;;;;;;;11.81;100.00;101495.78;5074562;28;20040;-66
2022/09/18 05:05:47;;;;;;;5.97;0.77;;;;;;;11.81;100.00;101501.03;5073132;28;20050;-67
2022/09/18 05:08:13;;;;;;;4.72;0.60;;;;;;;11.82;100.00;101490.53;5078987;28;20054;-66
2022/09/18 05:10:38;;;;;;;7.43;0.90;;;;;;;11.81;100.00;101494.03;5063786;28;20111;-66
2022/09/18 05:13:04;;;;;;;5.25;0.68;;;;;;;11.83;100.00;101491.44;5064106;28;20021;-66
2022/09/18 05:15:30;;;;;;;11.05;0.77;;;;;;;11.85;100.00;101492.34;5064373;28;20028;-66
2022/09/18 05:18:03;;;;;;;6.53;0.60;;;;;;;11.89;100.00;101491.56;5067400;28;20024;-66
2022/09/18 05:20:29;;;;;;;3.00;0.70;;;;;;;11.89;100.00;101475.72;5049007;28;20060;-65
2022/09/18 05:22:54;;;;;;;3.72;0.70;;;;;;;11.91;100.00;101488.94;5058656;28;20047;-66
2022/09/18 05:25:20;;;;;;;1.63;0.77;;;;;;;11.91;100.00;101503.03;5057072;28;20063;-66
2022/09/18 05:27:56;;;;;;;7.75;1.25;;;;;;;11.94;100.00;101500.50;5052546;28;20025;-67
2022/09/18 05:30:23;;;;;;;8.43;0.57;;;;;;;11.93;100.00;101500.44;5051214;28;20024;-65
2022/09/18 05:33:03;;;;;;;7.40;0.80;;;;;;;11.95;100.00;101506.63;5057672;28;20031;-67
2022/09/18 05:35:32;;;;;;;4.00;0.90;;;;;;;11.96;100.00;101505.78;5060360;28;20081;-66
2022/09/18 05:37:58;;;;;;;10.55;0.95;;;;;;;11.93;100.00;101497.78;5061182;28;20457;-66
2022/09/18 05:40:26;;;;;;;7.72;2.40;;;;;;;11.92;100.00;101496.91;5061812;28;20039;-67
2022/09/18 05:42:52;;;;;;;7.70;1.10;;;;;;;11.92;100.00;101485.47;5063109;28;20468;-67
2022/09/18 05:45:18;;;;;;;7.25;0.68;;;;;;;11.93;100.00;101482.84;5060014;28;20024;-65
2022/09/18 05:47:52;;;;;;;4.45;1.00;;;;;;;11.96;100.00;101488.25;5058784;28;20040;-66
2022/09/18 05:50:19;;;;;;;9.15;1.23;;;;;;;12.03;100.00;101494.53;5071705;28;20407;-67
2022/09/18 05:52:44;;;;;;;7.93;1.10;;;;;;;12.11;100.00;101503.50;5061411;28;20029;-67
2022/09/18 05:55:09;;;;;;;4.93;0.60;;;;;;;12.17;100.00;101507.09;5052548;28;20087;-67
2022/09/18 05:57:34;;;;;;;9.43;1.50;;;;;;;12.16;100.00;101513.25;5050771;28;20103;-67
2022/09/18 06:00:00;;;;;;;10.55;1.23;;;;;;;12.09;100.00;101506.97;5051757;28;20101;-67
2022/09/18 06:02:25;;;;;;;7.30;0.98;;;;;;;12.01;100.00;101493.59;5050135;28;20044;-67
2022/09/18 06:04:50;;;;;;;8.32;1.05;;;;;;;11.90;100.00;101492.47;5049692;28;20079;-67
2022/09/18 06:07:16;;;;;;;7.72;1.00;;;;;;;11.82;100.00;101487.00;5051907;28;20024;-67
2022/09/18 06:09:42;;;;;;;9.93;1.50;;;;;;;11.76;100.00;101495.69;5052522;28;20062;-67
2022/09/18 06:12:07;;;;;;;8.88;0.90;;;;;;;11.70;100.00;101484.09;5052347;28;20029;-66
2022/09/18 06:14:32;;;;;;;11.13;1.00;;;;;;;11.71;100.00;101486.78;5051531;28;20420;-67
2022/09/18 06:16:59;;;;;;;5.15;1.02;;;;;;;11.70;100.00;101484.97;5055694;28;20024;-66
2022/09/18 06:19:24;;;;;;;10.57;1.08;;;;;;;11.69;100.00;101480.56;5054939;28;20048;-66
2022/09/18 06:21:49;;;;;;;6.28;1.30;;;;;;;11.69;100.00;101482.31;5053169;28;20484;-67
2022/09/18 06:24:15;;;;;;;4.60;0.70;;;;;;;11.69;100.00;101488.47;5056287;28;20380;-67
2022/09/18 06:26:40;;;;;;;6.68;0.98;;;;;;;11.71;100.00;101486.78;5050694;28;20472;-66
2022/09/18 06:29:05;;;;;;;5.28;0.80;;;;;;;11.71;100.00;101476.22;5052507;28;20032;-66
2022/09/18 06:31:31;;;;;;;10.35;1.27;;;;;;;11.73;100.00;101482.41;5051848;28;20112;-67
2022/09/18 06:33:56;;;;;;;6.35;1.40;;;;;;;11.75;100.00;101483.34;5052238;28;20468;-67
2022/09/18 06:36:21;;;;;;;10.88;1.15;;;;;;;11.77;100.00;101492.19;5061036;28;20055;-64
2022/09/18 06:38:50;;;;;;;5.93;1.00;;;;;;;11.83;100.00;101499.34;5053569;28;20120;-65
2022/09/18 06:41:16;;;;;;;12.05;1.33;;;;;;;11.90;100.00;101479.28;5049602;28;20029;-65
2022/09/18 06:43:41;;;;;;;14.90;2.17;;;;;;;11.96;100.00;101480.34;5052013;28;20036;-65
2022/09/18 06:46:09;;;;;;;16.23;1.27;;;;;;;12.03;100.00;101484.00;5051630;28;20028;-65
2022/09/18 06:48:34;;;;;;;9.60;1.20;;;;;;;12.07;100.00;101475.28;5066182;28;20155;-65
2022/09/18 06:51:00;;;;;;;14.40;1.20;;;;;;;12.11;100.00;101482.41;5055999;28;20103;-65
2022/09/18 06:53:26;;;;;;;13.57;1.55;;;;;;;12.16;100.00;101478.97;5055926;28;20107;-68
2022/09/18 06:55:52;;;;;;;13.57;1.55;;;;;;;12.21;100.00;101487.84;5054394;28;20037;-65
2022/09/18 06:58:18;;;;;;;10.18;1.50;;;;;;;12.20;100.00;101479.03;5037494;28;20032;-65
2022/09/18 07:00:45;;;;;;;5.47;1.45;;;;;;;12.26;100.00;101484.44;5055506;28;20020;-65
2022/09/18 07:03:10;;;;;;;15.57;4.72;;;;;;;12.28;100.00;101484.47;5054827;28;20036;-65
2022/09/18 07:05:40;;;;;;;6.60;1.00;;;;;;;12.31;100.00;101484.53;5052192;28;20025;-64
2022/09/18 07:08:06;;;;;;;9.05;1.17;;;;;;;12.35;100.00;101485.50;5052891;28;20036;-65
2022/09/18 07:10:32;;;;;;;8.88;1.20;;;;;;;12.41;100.00;101497.06;5073389;28;20040;-65
2022/09/18 07:12:58;;;;;;;9.30;1.17;;;;;;;12.43;100.00;101491.81;5073051;28;20024;-65
2022/09/18 07:15:25;;;;;;;8.27;1.67;;;;;;;12.50;100.00;101491.06;5074732;28;21967;-66
2022/09/18 07:17:51;;;;;;;10.50;1.02;;;;;;;12.58;100.00;101488.56;5073095;28;20480;-66
2022/09/18 07:20:18;;;;;;;29.25;3.20;;;;;;;12.66;100.00;101489.59;5074983;28;20036;-65
2022/09/18 07:22:51;;;;;;;9.98;1.70;;;;;;;12.68;100.00;101495.78;5074043;28;20021;-65
2022/09/18 07:25:16;;;;;;;9.07;1.03;;;;;;;12.70;100.00;101494.06;5075177;28;20388;-65
2022/09/18 07:27:42;;;;;;;16.55;1.58;;;;;;;12.76;100.00;101494.16;5074699;28;20028;-65
2022/09/18 07:30:07;;;;;;;9.93;1.65;;;;;;;12.79;100.00;101499.53;5073391;28;20376;-65
2022/09/18 07:32:34;;;;;;;7.22;1.08;;;;;;;12.84;100.00;101490.78;5073436;28;20082;-64
2022/09/18 07:34:59;;;;;;;10.48;1.50;;;;;;;12.88;100.00;101484.69;5083175;28;20381;-64
2022/09/18 07:37:25;;;;;;;6.60;1.00;;;;;;;12.92;100.00;101475.97;5074092;28;20024;-64
2022/09/18 07:39:50;;;;;;;7.03;0.95;;;;;;;12.97;100.00;101487.50;5073597;28;20024;-64
2022/09/18 07:42:15;;;;;;;7.65;0.88;;;;;;;12.96;100.00;101483.94;5072549;28;20122;-63
2022/09/18 07:44:41;;;;;;;3.28;1.13;;;;;;;12.98;100.00;101481.34;5072937;28;20024;-67
2022/09/18 07:47:06;;;;;;;4.13;0.68;;;;;;;13.01;100.00;101485.78;5073005;28;20411;-68
2022/09/18 07:49:31;;;;;;;4.85;0.70;;;;;;;13.06;100.00;101492.94;5075655;28;20078;-65
2022/09/18 07:51:57;;;;;;;9.30;0.70;;;;;;;13.06;100.00;101487.66;5073380;28;20031;-67
2022/09/18 07:54:23;;;;;;;4.93;0.93;;;;;;;13.02;100.00;101496.38;5073683;28;20467;-68
2022/09/18 07:56:48;;;;;;;10.73;1.42;;;;;;;12.98;100.00;101505.09;5074581;28;20538;-68
2022/09/18 07:59:13;;;;;;;4.15;1.00;;;;;;;12.87;100.00;101522.53;5073183;28;20426;-66
2022/09/18 08:01:39;;;;;;;6.45;0.93;;;;;;;12.69;100.00;101505.50;5071923;28;20033;-67
2022/09/18 08:04:05;;;;;;;5.93;0.95;;;;;;;12.55;100.00;101499.09;5073737;28;20083;-68
2022/09/18 08:06:31;;;;;;;5.45;0.80;;;;;;;12.36;100.00;101496.06;5074212;28;20016;-68
2022/09/18 08:08:56;;;;;;;3.85;0.63;;;;;;;12.25;100.00;101492.31;5073167;28;20407;-66
2022/09/18 08:11:22;;;;;;;5.53;0.90;;;;;;;12.16;100.00;101492.16;5072933;28;20028;-67
2022/09/18 08:13:48;;;;;;;10.00;1.10;;;;;;;12.13;100.00;101491.22;5073206;28;20056;-67
2022/09/18 08:16:14;;;;;;;4.18;1.08;;;;;;;12.12;100.00;101493.81;5068409;28;20348;-67
2022/09/18 08:18:39;;;;;;;10.10;0.85;;;;;;;12.13;100.00;101491.22;5074834;28;20031;-67
2022/09/18 08:21:05;;;;;;;9.18;1.20;;;;;;;12.13;100.00;101485.94;5074309;28;20043;-66
2022/09/18 08:23:30;;;;;;;17.50;1.15;;;;;;;12.19;100.00;101489.56;5073078;28;20111;-66
2022/09/18 08:26:01;;;;;;;6.70;0.90;;;;;;;12.27;100.00;101487.97;5074516;28;20419;-67
2022/09/18 08:28:26;;;;;;;9.20;1.10;;;;;;;12.34;100.00;101491.63;5056953;28;20031;-67
2022/09/18 08:30:52;;;;;;;9.88;0.90;;;;;;;12.37;100.00;101492.59;5073561;28;20028;-66
2022/09/18 08:33:18;;;;;;;5.40;0.95;;;;;;;12.40;100.00;101483.81;5074221;28;20548;-66
2022/09/18 08:35:43;;;;;;;6.35;1.00;;;;;;;12.44;100.00;101480.41;5055951;28;20056;-66
2022/09/18 08:38:10;;;;;;;6.88;1.98;;;;;;;12.48;100.00;101485.75;5073602;28;20058;-66
2022/09/18 08:40:54;;;;;;;6.00;0.90;;;;;;;12.55;100.00;101488.53;5074718;28;20123;-66
2022/09/18 08:43:28;;;;;;;;;;;;;;;12.64;100.00;101493.94;5078796;28;20418;-67
2022/09/18 08:46:01;;;;;;;;;;;;;;;12.72;100.00;101491.47;5077739;28;19912;-67
2022/09/18 08:48:37;;;;;;;8.77;0.95;;;;;;;12.81;100.00;101488.97;5052134;28;19916;-67
2022/09/18 08:51:13;;;;;;;6.63;1.17;;;;;;;12.90;100.00;101494.44;5074099;28;20120;-66
2022/09/18 08:53:44;;;;;;;4.78;0.70;;;;;;;12.95;100.00;101484.84;5072463;28;20060;-67
2022/09/18 08:56:16;;;;;;;8.93;1.42;;;;;;;13.06;100.00;101482.38;5064244;28;20054;-67
2022/09/18 08:58:51;;;;;;;9.07;1.15;;;;;;;13.14;100.00;101486.03;5074476;28;20456;-67
2022/09/18 09:01:18;;;;;;;9.77;0.80;;;;;;;13.21;100.00;101480.84;5067120;28;20043;-67
2022/09/18 09:04:12;;;;;;;4.55;0.70;;;;;;;13.35;100.00;101483.69;5079234;28;20032;-67
2022/09/18 09:06:53;;;;;;;5.97;0.75;;;;;;;13.43;100.00;101482.97;5054322;28;20012;-67
2022/09/18 09:09:43;;;;;;;3.78;0.75;;;;;;;13.51;100.00;101476.91;5070387;28;20460;-67
2022/09/18 09:12:33;;;;;;;5.53;0.80;;;;;;;13.60;100.00;101477.94;5066721;28;20051;-67
2022/09/18 09:15:14;;;;;;;7.03;1.35;;;;;;;13.68;100.00;101483.34;5057036;28;20028;-67
2022/09/18 09:17:45;;;;;;;3.60;0.52;;;;;;;13.77;100.00;101466.72;5073429;28;20025;-67
2022/09/18 09:20:23;;;;;;;5.22;0.65;;;;;;;13.82;100.00;101465.91;5064838;28;20081;-68
2022/09/18 09:23:04;;;;;;;7.13;0.70;;;;;;;13.79;100.00;101471.13;5070330;28;20525;-67
2022/09/18 09:25:40;;;;;;;6.32;0.70;;;;;;;13.67;100.00;101473.63;5059795;28;20025;-67
2022/09/18 09:28:09;;;;;;;7.78;1.00;;;;;;;13.50;100.00;101489.25;5068075;28;20111;-68
2022/09/18 09:30:36;;;;;;;7.43;1.08;;;;;;;13.38;100.00;101492.59;5071384;28;20139;-67
2022/09/18 09:33:42;;;;;;;9.07;0.90;;;;;;;13.18;100.00;101496.66;5073499;28;20032;-68
2022/09/18 09:36:14;;;;;;;6.00;1.02;;;;;;;13.07;100.00;101501.75;5070460;28;20058;-66
2022/09/18 09:38:46;;;;;;;4.78;1.02;;;;;;;12.91;100.00;101503.22;5073537;28;20032;-67
2022/09/18 09:41:23;;;;;;;7.57;1.40;;;;;;;12.78;100.00;101491.59;5074658;28;20400;-66
2022/09/18 09:43:58;;;;;;;3.75;0.75;;;;;;;12.69;100.00;101501.97;5073596;28;20028;-67
2022/09/18 09:46:43;;;;;;;6.72;1.20;;;;;;;12.62;100.00;101495.69;5030797;28;20107;-67
2022/09/18 09:49:19;;;;;;;8.98;0.65;;;;;;;12.56;100.00;101485.91;5072745;28;20032;-66
2022/09/18 09:51:57;;;;;;;5.47;0.88;;;;;;;12.57;100.00;101494.69;5056428;28;20086;-66
2022/09/18 09:54:23;;;;;;;5.85;0.70;;;;;;;12.59;100.00;101485.06;5086556;28;20056;-66
2022/09/18 09:57:02;;;;;;;4.18;0.57;;;;;;;12.65;100.00;101487.81;5072786;28;20033;-67
2022/09/18 09:59:28;;;;;;;9.27;1.05;;;;;;;12.69;100.00;101494.94;5067501;28;20038;-66
2022/09/18 10:02:11;;;;;;;6.93;0.93;;;;;;;12.58;100.00;101489.44;5052508;28;20032;-67
2022/09/18 10:04:45;;;;;;;3.80;0.70;;;;;;;12.53;100.00;101488.47;5072340;28;20040;-66
2022/09/18 10:07:26;;;;;;;6.72;1.05;;;;;;;12.53;100.00;101484.94;5073303;28;20028;-67
2022/09/18 10:09:58;;;;;;;5.88;0.80;;;;;;;12.58;100.00;101491.22;5043684;28;20037;-68
2022/09/18 10:12:30;;;;;;;11.50;1.13;;;;;;;12.67;100.00;101486.09;5072957;28;20028;-67
2022/09/18 10:15:20;;;;;;;3.92;1.10;;;;;;;12.77;100.00;101485.38;5072947;28;20074;-68
2022/09/18 10:17:51;;;;;;;10.57;1.05;;;;;;;12.87;100.00;101490.84;5060435;28;20106;-68
2022/09/18 10:20:24;;;;;;;8.35;1.30;;;;;;;12.91;100.00;101490.03;5071173;28;20119;-67
2022/09/18 10:22:50;;;;;;;9.02;1.17;;;;;;;12.96;100.00;101488.38;5057210;28;20056;-68
2022/09/18 10:25:28;;;;;;;8.52;1.20;;;;;;;13.02;100.00;101495.50;5056629;28;20125;-68
2022/09/18 10:27:53;;;;;;;12.18;1.20;;;;;;;13.06;100.00;101494.69;5072627;28;20124;-67
2022/09/18 10:30:18;;;;;;;14.18;1.70;;;;;;;13.10;100.00;101497.41;5057627;28;20590;-68
2022/09/18 10:32:44;;;;;;;10.00;1.65;;;;;;;13.08;100.00;101508.81;5075762;28;20495;-68
2022/09/18 10:35:25;;;;;;;6.88;0.90;;;;;;;13.10;100.00;101510.63;5058445;28;20779;-68
2022/09/18 10:37:50;;;;;;;4.93;0.63;;;;;;;13.06;100.00;101516.72;5075932;28;20032;-68
2022/09/18 10:40:30;;;;;;;10.15;0.93;;;;;;;12.96;100.00;101514.78;5076536;28;20020;-68
2022/09/18 10:42:55;;;;;;;5.72;0.60;;;;;;;12.93;100.00;101512.09;5075585;28;20427;-67
2022/09/18 10:45:25;;;;;;;6.95;0.75;;;;;;;12.92;100.00;101499.75;5071131;28;20017;-68
2022/09/18 10:48:03;;;;;;;3.38;0.93;;;;;;;12.91;100.00;101505.88;5076029;28;20407;-67
2022/09/18 10:50:28;;;;;;;5.38;1.13;;;;;;;12.93;100.00;101512.97;5074999;28;20384;-68
2022/09/18 10:52:54;;;;;;;5.53;0.80;;;;;;;12.98;100.00;101510.41;5072472;28;20115;-67
2022/09/18 10:55:22;;;;;;;5.40;1.17;;;;;;;12.90;100.00;101512.00;5074878;28;20081;-68
2022/09/18 10:57:47;;;;;;;11.75;1.27;;;;;;;12.92;100.00;101512.94;5073701;28;20025;-69
2022/09/18 11:00:18;;;;;;;6.47;1.00;;;;;;;12.87;100.00;101511.97;5073924;28;20412;-69
2022/09/18 11:02:50;;;;;;;5.45;0.80;;;;;;;12.77;100.00;101509.16;5071788;28;20032;-67
2022/09/18 11:05:21;;;;;;;6.95;1.00;;;;;;;12.80;100.00;101501.31;5074129;28;20036;-68
2022/09/18 11:07:53;;;;;;;7.60;1.10;;;;;;;12.77;100.00;101495.94;5073785;28;20516;-68
2022/09/18 11:10:22;;;;;;;6.80;1.10;;;;;;;12.80;100.00;101508.31;5083536;28;20047;-69
2022/09/18 11:12:51;;;;;;;5.18;0.70;;;;;;;12.81;100.00;101500.44;5071541;28;20024;-68
2022/09/18 11:15:19;;;;;;;7.40;0.90;;;;;;;12.80;100.00;101506.59;5070407;28;20029;-68
2022/09/18 11:17:51;;;;;;;9.20;1.38;;;;;;;12.75;100.00;101505.63;5073108;28;20025;-68
2022/09/18 11:20:22;;;;;;;6.20;0.77;;;;;;;12.72;100.00;101508.19;5073912;28;20059;-68
2022/09/18 11:22:47;;;;;;;5.68;1.00;;;;;;;12.70;100.00;101499.34;5071591;28;20040;-68
2022/09/18 11:25:13;;;;;;;5.43;0.70;;;;;;;12.64;100.00;101502.78;5073835;28;20026;-68
2022/09/18 11:27:55;;;;;;;6.47;1.00;;;;;;;12.57;100.00;101507.91;5056053;28;20081;-68